Time;durP1;ratioP1;P1;durP2;ratioP2;P2;SDS_P1;SDS_P2;PMS_P1;PMS_P2;Temp;Humidity;BMP_temperature;BMP_pressure;BME280_temperature;BME280_humidity;BME280_pressure;Samples;Min_cycle;Max_cycle;Signal;HPM_P1;HPM_P2
2021/03/05 00:01:59;;;;;;;15.68;9.30;;;;;;;5.91;96.26;100580.47;20911599;28;20500;-69
2021/03/05 00:12:00;;;;;;;17.75;10.70;;;;;;;5.55;97.09;100590.22;20911295;28;20045;-69
2021/03/05 00:22:01;;;;;;;18.40;11.15;;;;;;;5.30;97.04;100610.03;20911078;28;20085;-69
2021/03/05 00:32:02;;;;;;;23.90;11.27;;;;;;;5.25;93.20;100613.66;20909124;28;20128;-68
2021/03/05 00:42:04;;;;;;;22.08;11.77;;;;;;;4.97;92.62;100630.00;20909240;28;20053;-68
2021/03/05 00:52:05;;;;;;;20.60;11.05;;;;;;;4.84;93.52;100643.34;20988732;28;20562;-68
2021/03/05 01:02:06;;;;;;;22.23;12.23;;;;;;;5.03;94.18;100647.97;20989861;28;20418;-68
2021/03/05 01:12:08;;;;;;;24.23;12.35;;;;;;;4.96;95.78;100659.44;20988538;28;20060;-68
2021/03/05 01:22:09;;;;;;;24.17;12.10;;;;;;;4.93;92.89;100664.69;20988273;28;20288;-68
2021/03/05 01:32:10;;;;;;;27.77;12.98;;;;;;;4.86;90.30;100667.50;20986671;28;20052;-68
2021/03/05 01:42:11;;;;;;;29.75;13.52;;;;;;;4.72;90.72;100666.09;20986815;28;20541;-69
2021/03/05 01:52:12;;;;;;;26.92;13.00;;;;;;;4.62;91.55;100666.41;20986380;28;20706;-69
2021/03/05 02:02:13;;;;;;;27.08;12.35;;;;;;;4.52;89.53;100664.94;20985161;28;20056;-70
2021/03/05 02:12:14;;;;;;;22.50;11.15;;;;;;;4.48;87.12;100687.47;20985140;28;20091;-68
2021/03/05 02:22:36;;;;;;;21.85;10.90;;;;;;;4.40;86.68;100681.63;20985352;28;20052;-68
2021/03/05 02:33:06;;;;;;;21.77;11.05;;;;;;;4.36;86.14;100686.94;20982893;28;20049;-69
2021/03/05 02:43:11;;;;;;;22.67;11.48;;;;;;;4.41;84.12;100700.63;20980910;28;20419;-69
2021/03/05 02:53:15;;;;;;;22.63;11.10;;;;;;;4.30;85.81;100704.31;20983872;28;20095;-69
2021/03/05 03:03:18;;;;;;;22.55;11.32;;;;;;;4.37;85.92;100701.59;20997404;28;20040;-69
2021/03/05 03:13:20;;;;;;;21.73;11.07;;;;;;;4.28;85.08;100706.09;20997229;28;20049;-69
2021/03/05 03:23:21;;;;;;;23.17;11.50;;;;;;;4.14;85.07;100723.69;20997689;28;20063;-68
2021/03/05 03:33:22;;;;;;;23.63;11.43;;;;;;;4.32;85.16;100732.78;20996303;28;20064;-69
2021/03/05 03:43:25;;;;;;;24.38;11.80;;;;;;;4.34;84.81;100740.50;20996847;28;20102;-68
2021/03/05 03:53:29;;;;;;;24.73;11.73;;;;;;;4.28;86.17;100742.38;20995922;28;20044;-70
2021/03/05 04:03:33;;;;;;;23.50;12.10;;;;;;;4.23;85.69;100754.56;20995264;28;20135;-69
2021/03/05 04:13:36;;;;;;;26.42;11.75;;;;;;;4.23;86.27;100758.91;20994467;28;20056;-69
2021/03/05 04:23:37;;;;;;;26.27;12.88;;;;;;;4.39;86.03;100775.81;20993653;28;20044;-68
2021/03/05 04:33:38;;;;;;;28.15;12.10;;;;;;;4.35;86.29;100786.28;20992704;28;20052;-68
2021/03/05 04:43:39;;;;;;;26.58;12.38;;;;;;;4.30;86.28;100792.41;20994146;28;20052;-69
2021/03/05 04:53:40;;;;;;;26.63;12.32;;;;;;;4.29;87.11;100800.22;21006408;28;20440;-69
2021/03/05 05:03:41;;;;;;;27.73;13.40;;;;;;;4.22;88.21;100799.50;21018743;28;20106;-69
2021/03/05 05:13:43;;;;;;;34.42;14.07;;;;;;;4.29;88.51;100801.06;20989921;28;20101;-69
2021/03/05 05:23:43;;;;;;;29.23;13.68;;;;;;;4.17;87.89;100806.50;20988057;28;20451;-68
2021/03/05 05:33:44;;;;;;;30.50;14.85;;;;;;;4.20;87.47;100811.66;20987192;28;20075;-69
2021/03/05 05:43:45;;;;;;;25.83;12.75;;;;;;;4.29;87.34;100821.81;20987410;28;20052;-69
2021/03/05 05:53:47;;;;;;;30.58;14.18;;;;;;;4.29;88.06;100829.56;20986477;28;20127;-69
2021/03/05 06:03:48;;;;;;;31.42;14.45;;;;;;;4.00;89.43;100844.88;20985652;28;20106;-69
2021/03/05 06:13:50;;;;;;;32.92;16.10;;;;;;;3.84;89.89;100861.59;20987264;28;20302;-68
2021/03/05 06:23:59;;;;;;;38.28;17.40;;;;;;;3.76;93.20;100853.97;20985083;28;20117;-69
2021/03/05 06:34:04;;;;;;;39.15;16.95;;;;;;;3.76;94.21;100876.41;20999531;28;20053;-69
2021/03/05 06:44:05;;;;;;;32.58;16.17;;;;;;;3.74;91.52;100889.41;21001454;28;20492;-69
2021/03/05 06:54:08;;;;;;;30.15;13.43;;;;;;;3.56;91.09;100902.66;20997282;28;20045;-68
2021/03/05 07:04:14;;;;;;;36.25;15.98;;;;;;;3.57;92.48;100911.28;20969205;28;20123;-68
2021/03/05 07:14:15;;;;;;;36.38;15.80;;;;;;;3.71;91.68;100925.69;20916650;28;20052;-70
2021/03/05 07:24:19;;;;;;;34.05;15.85;;;;;;;3.75;90.56;100929.94;20916089;28;20052;-71
2021/03/05 07:34:22;;;;;;;30.80;14.30;;;;;;;3.87;88.93;100936.63;20912597;28;20527;-70
2021/03/05 07:44:24;;;;;;;27.80;12.70;;;;;;;3.81;86.78;100955.69;20891724;28;20123;-70
2021/03/05 07:54:41;;;;;;;25.60;12.52;;;;;;;4.17;84.34;100971.44;20905215;28;20045;-71
2021/03/05 08:04:48;;;;;;;25.00;12.02;;;;;;;4.15;87.49;100973.25;20896636;28;20044;-71
2021/03/05 08:14:49;;;;;;;25.17;10.88;;;;;;;3.92;82.55;100981.41;20910686;28;20541;-71
2021/03/05 08:24:50;;;;;;;21.58;9.75;;;;;;;4.15;82.88;100992.22;20907347;28;20063;-69
2021/03/05 08:34:51;;;;;;;17.73;8.98;;;;;;;4.12;80.74;100994.00;20877379;28;20067;-71
2021/03/05 08:45:15;;;;;;;20.60;8.70;;;;;;;3.99;80.31;101019.28;20885178;28;20045;-70
2021/03/05 08:55:17;;;;;;;16.42;7.78;;;;;;;4.00;79.80;101023.59;20896771;28;20122;-71
2021/03/05 09:05:26;;;;;;;19.58;8.80;;;;;;;3.87;80.29;101030.69;20890589;28;20098;-72
2021/03/05 09:15:38;;;;;;;23.42;7.68;;;;;;;3.83;79.38;101033.38;20884429;28;20045;-72
2021/03/05 09:25:46;;;;;;;24.45;8.85;;;;;;;4.04;78.88;101052.88;20874096;28;20068;-71
2021/03/05 09:35:47;;;;;;;19.75;8.10;;;;;;;4.01;79.19;101053.78;20898318;28;20118;-72
2021/03/05 09:45:50;;;;;;;29.17;8.73;;;;;;;4.24;78.86;101051.63;20891257;28;20041;-72
2021/03/05 09:55:53;;;;;;;19.15;7.90;;;;;;;4.28;77.67;101066.25;20886192;28;20510;-73
2021/03/05 10:05:54;;;;;;;22.60;8.93;;;;;;;4.56;77.27;101073.53;20888191;28;20076;-72
2021/03/05 10:15:55;;;;;;;24.23;8.90;;;;;;;4.45;76.94;101083.22;20898377;28;20412;-73
2021/03/05 10:25:57;;;;;;;24.55;9.68;;;;;;;4.59;76.89;101091.59;20903158;28;20072;-72
2021/03/05 10:35:58;;;;;;;24.38;9.32;;;;;;;4.73;78.24;101099.97;20904395;28;20049;-73
2021/03/05 10:45:59;;;;;;;24.95;10.38;;;;;;;4.90;78.52;101102.25;20931437;28;20057;-73
2021/03/05 10:56:01;;;;;;;28.23;11.18;;;;;;;4.61;77.96;101123.56;20927074;28;20090;-72
2021/03/05 11:06:02;;;;;;;24.15;11.18;;;;;;;4.95;76.93;101135.00;20890112;28;20496;-73
2021/03/05 11:16:06;;;;;;;26.02;10.65;;;;;;;4.98;77.40;101147.88;20890513;28;20041;-72
2021/03/05 11:26:07;;;;;;;34.88;15.07;;;;;;;5.00;77.15;101145.28;20911105;28;20259;-75
2021/03/05 11:36:08;;;;;;;23.77;12.18;;;;;;;4.99;77.04;101136.63;20903547;28;20048;-75
2021/03/05 11:46:10;;;;;;;29.40;13.23;;;;;;;5.23;76.92;101147.44;20903446;28;20120;-75
2021/03/05 11:56:12;;;;;;;27.55;11.60;;;;;;;4.99;77.14;101130.59;20903021;28;20045;-74
2021/03/05 12:06:13;;;;;;;26.33;10.52;;;;;;;5.15;76.01;101138.03;20901615;28;20067;-75
2021/03/05 12:16:14;;;;;;;23.05;10.25;;;;;;;4.96;77.41;101141.91;20892116;28;20049;-74
2021/03/05 12:26:16;;;;;;;24.13;11.45;;;;;;;5.17;76.68;101140.63;20908022;28;20068;-74
2021/03/05 12:36:17;;;;;;;25.33;12.18;;;;;;;5.20;74.93;101142.28;20882310;28;20098;-74
2021/03/05 12:46:18;;;;;;;25.95;11.18;;;;;;;5.48;74.50;101133.91;21038218;28;20055;-74
2021/03/05 12:56:19;;;;;;;30.35;15.95;;;;;;;5.75;74.07;101134.16;21035240;28;20068;-74
2021/03/05 13:06:20;;;;;;;21.20;10.95;;;;;;;5.57;74.48;101130.25;21042147;28;20060;-76
2021/03/05 13:16:23;;;;;;;19.75;9.57;;;;;;;6.00;69.30;101131.00;21035833;28;20055;-76
2021/03/05 13:26:25;;;;;;;20.45;9.32;;;;;;;5.89;67.96;101132.16;21061166;28;20412;-76
2021/03/05 13:36:26;;;;;;;18.33;9.20;;;;;;;5.81;67.62;101160.84;21059478;28;20044;-75
2021/03/05 13:46:28;;;;;;;16.10;9.13;;;;;;;5.75;69.93;101166.19;21047252;28;20043;-76
2021/03/05 13:56:29;;;;;;;17.30;9.13;;;;;;;5.75;68.41;101167.91;21051475;28;20060;-75
2021/03/05 14:06:30;;;;;;;17.98;9.82;;;;;;;6.16;68.84;101178.25;21061230;28;20151;-75
2021/03/05 14:16:33;;;;;;;15.32;7.78;;;;;;;6.01;65.75;101195.06;21048336;28;20045;-75
2021/03/05 14:26:34;;;;;;;17.80;6.72;;;;;;;5.72;66.82;101213.00;21050725;28;20489;-77
2021/03/05 14:36:36;;;;;;;19.65;9.10;;;;;;;5.67;67.63;101214.00;21028863;28;20055;-74
2021/03/05 14:46:37;;;;;;;16.25;8.50;;;;;;;5.72;68.90;101233.78;21043291;28;20055;-72
2021/03/05 14:56:38;;;;;;;15.27;7.88;;;;;;;5.69;67.49;101239.03;21060827;28;20044;-73
2021/03/05 15:06:39;;;;;;;13.85;7.07;;;;;;;5.66;68.38;101243.44;21030907;28;20503;-73
2021/03/05 15:16:40;;;;;;;12.88;6.72;;;;;;;5.71;69.45;101252.84;21058743;28;20048;-71
2021/03/05 15:26:42;;;;;;;14.95;6.82;;;;;;;5.57;70.92;101275.66;21067872;28;20461;-71
2021/03/05 15:36:43;;;;;;;14.20;6.80;;;;;;;5.10;74.47;101276.53;21048386;28;20044;-71
2021/03/05 15:46:44;;;;;;;14.45;6.80;;;;;;;4.94;74.13;101286.31;21054093;28;20044;-70
2021/03/05 15:56:46;;;;;;;13.77;6.53;;;;;;;4.94;72.36;101301.88;21063760;28;20438;-71
2021/03/05 16:06:48;;;;;;;16.42;7.95;;;;;;;5.11;70.12;101307.66;21049261;28;20051;-70
2021/03/05 16:16:49;;;;;;;14.45;8.07;;;;;;;5.05;70.27;101312.09;21062958;28;20052;-71
2021/03/05 16:26:50;;;;;;;12.93;7.30;;;;;;;5.16;70.66;101329.19;21066209;28;20484;-71
2021/03/05 16:36:55;;;;;;;12.68;5.85;;;;;;;5.22;67.38;101340.34;21065383;28;20419;-70
2021/03/05 16:46:56;;;;;;;;;;;;;;;5.15;69.05;101357.75;21064813;28;20048;-73
2021/03/05 16:56:57;;;;;;;11.07;5.68;;;;;;;5.16;70.23;101375.03;21045624;28;19920;-72
2021/03/05 17:06:58;;;;;;;8.55;5.13;;;;;;;4.93;74.12;101390.09;21051403;28;20067;-72
2021/03/05 17:16:59;;;;;;;10.88;4.60;;;;;;;4.84;73.70;101409.25;21026797;28;20048;-72
2021/03/05 17:27:00;;;;;;;12.68;5.88;;;;;;;4.75;73.66;101432.75;21016793;28;20093;-74
2021/03/05 17:37:01;;;;;;;14.57;7.05;;;;;;;4.69;74.72;101443.19;21042304;28;20658;-73
2021/03/05 17:47:03;;;;;;;9.68;5.13;;;;;;;4.77;73.46;101472.50;21050849;28;20123;-72
2021/03/05 17:57:07;;;;;;;15.15;6.65;;;;;;;4.74;72.58;101482.88;21073168;28;20064;-73
2021/03/05 18:07:08;;;;;;;11.75;6.40;;;;;;;4.73;72.12;101492.41;21076581;28;20122;-73
2021/03/05 18:17:09;;;;;;;13.70;7.15;;;;;;;4.66;73.66;101508.94;21049023;28;20044;-73
2021/03/05 18:27:10;;;;;;;11.93;6.07;;;;;;;4.60;74.13;101521.09;21031419;28;20551;-73
2021/03/05 18:37:11;;;;;;;9.95;5.50;;;;;;;4.47;74.73;101535.09;21028429;28;20052;-73
2021/03/05 18:47:12;;;;;;;25.30;10.95;;;;;;;4.24;76.61;101528.41;21047050;28;20044;-73
2021/03/05 18:57:13;;;;;;;26.05;13.27;;;;;;;4.08;76.67;101542.38;21027016;28;20048;-73
2021/03/05 19:07:15;;;;;;;37.33;16.23;;;;;;;3.86;77.76;101561.56;21036428;28;20094;-73
2021/03/05 19:17:16;;;;;;;13.73;6.95;;;;;;;3.75;76.08;101568.56;21049703;28;20040;-73
2021/03/05 19:27:32;;;;;;;12.57;6.80;;;;;;;3.42;76.33;101586.03;21051509;28;20090;-73
2021/03/05 19:37:33;;;;;;;12.55;6.22;;;;;;;3.19;78.09;101592.22;21042849;28;20550;-73
2021/03/05 19:47:34;;;;;;;14.32;7.50;;;;;;;3.07;77.45;101598.31;21050485;28;20044;-73
2021/03/05 19:57:55;;;;;;;10.95;6.00;;;;;;;2.88;77.94;101607.00;21056636;28;20044;-74
2021/03/05 20:07:57;;;;;;;12.43;7.30;;;;;;;2.76;77.23;101632.88;21070237;28;20050;-73
2021/03/05 20:17:58;;;;;;;18.58;10.82;;;;;;;2.57;77.42;101638.09;21042156;28;20044;-73
2021/03/05 20:28:18;;;;;;;12.65;7.57;;;;;;;2.40;79.10;101655.34;21057573;28;20123;-73
2021/03/05 20:38:20;;;;;;;9.55;4.60;;;;;;;2.42;74.16;101663.97;21072343;28;20443;-73
2021/03/05 20:48:20;;;;;;;11.40;5.38;;;;;;;2.37;72.52;101676.03;21026287;28;20044;-74
2021/03/05 20:58:42;;;;;;;11.25;4.93;;;;;;;2.35;70.43;101685.47;21050058;28;20048;-73
2021/03/05 21:08:43;;;;;;;9.20;4.10;;;;;;;2.25;68.73;101699.25;21037943;28;20491;-73
2021/03/05 21:18:44;;;;;;;10.88;4.97;;;;;;;1.96;69.32;101704.41;21051923;28;20056;-74
2021/03/05 21:28:56;;;;;;;16.67;7.50;;;;;;;1.84;68.28;101716.41;21030592;28;20419;-73
2021/03/05 21:38:57;;;;;;;9.18;4.35;;;;;;;1.78;67.67;101732.72;21046607;28;20093;-73
2021/03/05 21:48:58;;;;;;;9.40;4.85;;;;;;;1.64;66.79;101732.69;21037238;28;20048;-74
2021/03/05 21:58:59;;;;;;;8.75;4.60;;;;;;;1.57;66.71;101730.97;21066658;28;20047;-74
2021/03/05 22:09:00;;;;;;;8.88;4.18;;;;;;;1.47;66.38;101736.06;21057875;28;20085;-73
2021/03/05 22:19:03;;;;;;;10.95;5.63;;;;;;;1.31;66.50;101729.13;21052318;28;20564;-73
2021/03/05 22:29:05;;;;;;;11.18;5.47;;;;;;;1.24;66.66;101735.94;21066682;28;20451;-73
2021/03/05 22:39:06;;;;;;;8.75;5.10;;;;;;;1.01;68.17;101735.84;21049447;28;20097;-74
2021/03/05 22:49:07;;;;;;;12.27;5.55;;;;;;;0.96;68.60;101744.41;21059704;28;20040;-73
2021/03/05 22:59:08;;;;;;;9.88;5.07;;;;;;;0.68;69.46;101739.03;21054552;28;20043;-71
2021/03/05 23:09:10;;;;;;;11.13;4.75;;;;;;;0.48;70.39;101753.47;21047320;28;20036;-71
2021/03/05 23:19:11;;;;;;;9.45;5.07;;;;;;;0.29;70.15;101757.59;21058065;28;20593;-72
2021/03/05 23:29:12;;;;;;;9.23;4.50;;;;;;;0.24;72.03;101760.97;21040181;28;20115;-71
2021/03/05 23:39:13;;;;;;;11.00;5.88;;;;;;;0.13;72.33;101763.44;21049318;28;20048;-71
2021/03/05 23:49:14;;;;;;;16.15;7.65;;;;;;;-0.06;72.91;101762.41;21058719;28;20118;-72
2021/03/05 23:59:15;;;;;;;10.73;5.50;;;;;;;-0.22;73.55;101762.19;21050007;28;20051;-72
